Latest Weather Observations for Norfolk Island

IDN60801

Issued at 11:32 am EDT Thursday 11 February 2016 (issued every 30 minutes, with the page automatically refreshed every 10 minutes)

About weather observations | Map of weather stations | Latest weather observations for NSW | Other Formats
Station Details ID: 200288 Name: NORFOLK ISLAND AERO Lat: -29.04 Lon: 167.94 Height: 111.73 m
Data from the previous 72 hours. | See also: Recent months at Norfolk Island
Date/Time
EDT
Temp
°C
App
Temp
°C
Dew
Point
Rel
Hum
%
Delta-T
°C
Wind Press
QNH
hPa
Press
MSL
hPa
Rain
since 9 am
mm
Dir
 
Spd
km/h
Gust
km/h
Spd
kts
Gust
kts
11/11:10am 24.9 23.8 21.0 79 2.6 E 28 46 15 25 1011.2 - 0.0
11/11:00am 24.4 21.7 20.4 78 2.6 E 35 48 19 26 1011.2 - 0.0
11/10:32am 25.0 24.0 21.2 79 2.5 E 28 46 15 25 1011.4 - 0.0
11/10:30am 24.8 23.4 21.2 80 2.4 E 30 46 16 25 1011.4 - 0.0
11/10:00am 24.4 22.4 20.7 80 2.4 E 32 44 17 24 1011.3 - 0.0
11/09:30am 24.2 22.3 21.0 82 2.1 E 32 48 17 26 1011.2 - 0.0
11/09:00am 23.6 21.7 20.9 85 1.8 E 32 44 17 24 1011.2 1010.8 11.6
11/08:30am 23.2 22.8 20.9 87 1.5 E 24 35 13 19 1011.2 - 11.6
11/08:00am 23.0 22.5 20.7 87 1.5 E 24 33 13 18 1011.0 - 11.6
11/07:30am 23.0 21.8 20.9 88 1.4 E 28 39 15 21 1010.8 - 11.4
11/07:00am 23.0 21.6 20.5 86 1.6 E 28 41 15 22 1010.7 - 11.4
11/06:30am 22.8 22.3 20.8 88 1.3 E 24 37 13 20 1010.5 - 11.4
11/06:15am 22.7 22.2 20.7 88 1.3 E 24 35 13 19 1010.3 - 11.4
11/06:12am 22.7 21.8 20.6 88 1.4 E 26 32 14 17 1010.3 - 11.4
11/06:00am 22.5 22.4 20.8 90 1.1 E 22 32 12 17 1010.1 1009.6 11.4
11/05:51am 22.4 21.2 20.9 91 1.0 E 28 37 15 20 1010.0 - 11.4
11/05:30am 22.3 22.7 20.9 92 0.9 E 20 30 11 16 1009.8 - 11.2
11/05:10am 22.2 22.1 20.8 92 0.9 E 22 30 12 16 1009.7 - 11.2
11/05:08am 22.2 22.1 20.8 92 0.9 E 22 30 12 16 1009.7 - 11.2
11/05:06am 22.2 22.1 20.8 92 0.9 E 22 30 12 16 1009.7 - 11.2
11/05:00am 22.1 22.1 20.9 93 0.8 E 22 32 12 17 1009.6 - 11.2
11/04:46am 22.1 22.4 20.7 92 0.9 E 20 35 11 19 1009.7 - 11.0
11/04:34am 22.3 22.7 20.9 92 0.9 E 20 32 11 17 1009.5 - 9.6
11/04:30am 22.3 22.7 20.9 92 0.9 E 20 32 11 17 1009.4 - 9.6
11/04:25am 22.4 22.4 20.9 91 1.0 E 22 33 12 18 1009.4 - 9.6
11/04:00am 22.3 21.8 20.8 91 1.0 E 24 35 13 19 1009.3 - 9.6
11/03:41am 22.4 22.8 20.9 91 1.0 E 20 33 11 18 1009.2 - 9.6
11/03:30am 22.3 22.8 21.1 93 0.8 E 20 30 11 16 1009.2 - 9.6
11/03:27am 22.3 22.8 21.1 93 0.8 E 20 30 11 16 1009.2 - 9.6
11/03:06am 22.3 22.8 21.1 93 0.8 E 20 32 11 17 1009.2 - 9.4
11/03:00am 22.3 22.4 21.1 93 0.8 ESE 22 35 12 19 1009.2 1008.7 9.4
11/02:50am 22.4 22.4 21.0 92 0.9 E 22 35 12 19 1009.2 - 9.4
11/02:41am 22.4 22.5 21.2 93 0.8 E 22 30 12 16 1009.2 - 9.4
11/02:30am 22.3 22.8 21.1 93 0.8 E 20 32 11 17 1009.2 - 9.4
11/02:12am 22.3 22.3 20.9 92 0.9 E 22 32 12 17 1009.3 - 9.4
11/02:09am 22.3 22.3 20.9 92 0.9 E 22 32 12 17 1009.3 - 9.4
11/02:00am 22.3 22.0 21.1 93 0.8 E 24 35 13 19 1009.4 - 9.4
11/01:50am 22.3 21.5 20.8 91 1.0 E 26 41 14 22 1009.4 - 9.4
11/01:30am 22.6 23.0 20.9 90 1.1 E 20 28 11 15 1009.4 - 9.2
11/01:29am 22.6 23.0 20.9 90 1.1 E 20 28 11 15 1009.4 - 9.2
11/01:18am 22.6 23.0 20.9 90 1.1 E 20 33 11 18 1009.5 - 9.2
11/01:07am 22.6 22.6 20.9 90 1.1 E 22 33 12 18 1009.5 - 9.2
11/01:00am 22.5 22.9 21.0 91 1.0 E 20 35 11 19 1009.5 - 9.2
11/12:50am 22.5 22.1 21.0 91 1.0 E 24 39 13 21 1009.5 - 9.2
11/12:43am 22.5 21.7 20.8 90 1.1 E 26 39 14 21 1009.5 - 9.2
11/12:30am 22.3 22.1 21.2 93 0.7 E 24 33 13 18 1009.5 - 9.2
11/12:18am 22.0 20.8 20.9 93 0.7 E 28 41 15 22 1009.7 - 9.0
11/12:13am 22.1 20.8 20.6 91 1.0 E 28 41 15 22 1009.6 - 9.0
11/12:01am 22.2 21.4 20.8 92 0.9 E 26 39 14 21 1009.6 - 9.0
11/12:00am 22.3 21.9 20.9 92 0.9 E 24 39 13 21 1009.6 1009.1 9.0
 
Date/Time
EDT
Temp
°C
App
Temp
°C
Dew
Point
Rel
Hum
%
Delta-T
°C
Wind Press
QNH
hPa
Press
MSL
hPa
Rain
since 9 am
mm
Dir
 
Spd
km/h
Gust
km/h
Spd
kts
Gust
kts
10/11:30pm 22.5 21.3 20.8 90 1.1 E 28 41 15 22 1009.7 - 9.0
10/11:00pm 22.6 21.7 21.5 93 0.7 E 28 39 15 21 1009.7 - 9.0
10/10:53pm 22.6 22.1 21.5 93 0.7 E 26 35 14 19 1009.8 - 9.0
10/10:35pm 22.7 22.7 21.6 93 0.7 E 24 35 13 19 1009.9 - 8.8
10/10:33pm 22.7 22.7 21.6 93 0.7 E 24 35 13 19 1009.9 - 8.8
10/10:30pm 22.7 22.3 21.6 93 0.7 E 26 35 14 19 1009.8 - 8.8
10/10:28pm 22.7 22.3 21.6 93 0.7 E 26 35 14 19 1009.9 - 8.8
10/10:15pm 22.5 22.8 21.6 95 0.6 E 22 41 12 22 1009.9 - 8.8
10/10:12pm 22.5 22.5 21.7 95 0.5 E 24 33 13 18 1009.8 - 8.8
10/10:03pm 22.4 21.8 21.3 93 0.7 E 26 35 14 19 1009.8 - 8.8
10/10:00pm 22.3 21.8 21.4 95 0.6 E 26 35 14 19 1009.9 - 8.8
10/09:56pm 22.2 21.5 21.1 93 0.7 E 26 35 14 19 1009.9 - 8.8
10/09:53pm 22.2 21.9 21.1 93 0.7 E 24 35 13 19 1009.8 - 8.6
10/09:30pm 22.4 22.0 21.0 92 0.9 E 24 39 13 21 1009.8 - 8.0
10/09:28pm 22.5 22.3 21.3 93 0.8 E 24 33 13 18 1009.9 - 7.8
10/09:17pm 22.7 22.5 21.3 92 0.9 E 24 37 13 20 1009.7 - 5.6
10/09:00pm 22.8 21.7 21.0 89 1.2 E 28 35 15 19 1009.6 1009.1 5.4
10/08:57pm 22.8 22.1 21.0 89 1.2 E 26 35 14 19 1009.6 - 5.4
10/08:42pm 23.0 22.9 21.5 91 1.0 E 24 35 13 19 1009.5 - 5.4
10/08:30pm 22.9 22.8 21.4 91 1.0 E 24 33 13 18 1009.4 - 5.4
10/08:28pm 22.9 22.8 21.4 91 1.0 E 24 33 13 18 1009.3 - 5.4
10/08:05pm 22.3 22.9 21.4 95 0.6 E 20 28 11 15 1009.1 - 5.4
10/08:00pm 22.2 22.0 21.3 95 0.6 E 24 35 13 19 1009.0 - 5.4
10/07:50pm 22.4 21.8 21.3 93 0.7 E 26 37 14 20 1008.8 - 5.4
10/07:45pm 22.6 22.7 21.2 92 0.9 E 22 37 12 20 1008.7 - 5.2
10/07:30pm 22.6 23.2 21.1 91 1.0 E 19 24 10 13 1008.4 - 5.2
10/07:00pm 22.2 22.1 20.7 91 1.0 E 22 30 12 16 1008.2 - 5.2
10/06:46pm 22.1 21.8 20.4 90 1.1 E 22 32 12 17 1008.0 - 5.2
10/06:33pm 22.4 22.4 20.9 91 1.0 E 22 37 12 20 1007.8 - 5.2
10/06:30pm 22.7 23.4 21.2 91 1.0 E 19 33 10 18 1007.7 - 5.2
10/06:15pm 22.6 23.1 21.2 92 0.9 E 20 28 11 15 1007.4 - 5.2
10/06:08pm 23.0 23.9 21.5 91 1.0 ESE 19 30 10 16 1007.2 - 5.0
10/06:00pm 22.9 23.2 21.5 92 0.9 ESE 22 35 12 19 1007.1 1006.6 5.0
10/05:30pm 23.4 23.3 21.4 88 1.3 ESE 24 35 13 19 1006.7 - 4.6
10/05:00pm 23.8 23.9 21.2 85 1.7 ESE 22 35 12 19 1006.6 - 4.6
10/04:30pm 23.6 24.1 21.2 86 1.6 ESE 20 32 11 17 1006.5 - 4.6
10/04:00pm 23.3 24.0 21.6 90 1.1 ESE 20 32 11 17 1006.5 - 4.6
10/03:54pm 23.6 23.9 21.6 88 1.3 ESE 22 35 12 19 1006.4 - 4.4
10/03:30pm 25.1 25.4 21.5 80 2.4 ESE 22 35 12 19 1006.3 - 4.2
10/03:00pm 23.9 24.0 21.2 85 1.8 ESE 22 35 12 19 1006.2 1005.7 4.2
10/02:30pm 25.3 25.4 21.1 77 2.8 ESE 22 33 12 18 1006.3 - 4.2
10/02:00pm 25.4 25.4 21.7 80 2.5 ESE 24 33 13 18 1006.2 - 4.2
10/01:30pm 25.9 26.4 22.0 79 2.6 ESE 22 32 12 17 1006.4 - 4.2
10/01:00pm 25.1 24.9 21.3 79 2.5 SE 24 35 13 19 1006.7 - 4.2
10/12:30pm 24.6 24.8 21.3 82 2.2 SE 22 33 12 18 1006.8 - 4.2
10/12:00pm 25.2 25.4 21.4 79 2.5 SE 22 33 12 18 1006.9 1006.4 4.2
10/11:30am 24.3 24.3 21.0 82 2.2 ESE 22 35 12 19 1007.0 - 4.2
10/11:00am 22.8 22.9 21.1 90 1.1 E 22 30 12 16 1007.1 - 4.2
10/10:30am 23.6 24.2 21.3 87 1.5 ESE 20 30 11 16 1006.8 - 4.0
10/10:00am 23.4 24.1 21.6 90 1.2 ESE 20 32 11 17 1006.7 - 3.8
10/09:37am 22.6 23.8 21.5 93 0.7 ESE 17 30 9 16 1006.7 - 2.4
10/09:30am 23.1 24.1 21.7 92 0.9 ESE 19 30 10 16 1006.6 - 2.2
10/09:00am 23.8 24.5 21.5 87 1.5 ESE 20 28 11 15 1006.5 1006.0 1.2
10/08:30am 23.7 23.7 21.0 85 1.8 ESE 22 33 12 18 1006.2 - 1.2
10/08:00am 23.0 24.1 21.2 89 1.2 E 17 24 9 13 1006.1 - 1.2
10/07:30am 23.0 23.4 20.9 88 1.4 ESE 20 33 11 18 1005.8 - 1.0
10/07:00am 23.4 24.2 21.3 88 1.4 E 19 26 10 14 1005.6 - 1.0
10/06:30am 23.0 23.8 20.7 87 1.5 ESE 17 33 9 18 1005.4 - 1.0
10/06:00am 21.8 23.4 20.7 93 0.7 E 13 15 7 8 1005.0 1004.6 1.0
10/05:36am 21.5 22.8 20.1 92 0.9 E 13 17 7 9 1004.7 - 1.0
10/05:30am 21.5 22.7 20.0 91 1.0 ESE 13 17 7 9 1004.6 - 1.0
10/05:19am 21.6 22.7 20.4 93 0.8 ESE 15 24 8 13 1004.6 - 0.8
10/05:00am 22.1 23.9 21.2 95 0.6 SE 13 19 7 10 1004.4 - 0.8
10/04:57am 22.1 23.9 21.2 95 0.6 SE 13 19 7 10 1004.4 - 0.8
10/04:43am 22.0 23.8 21.2 95 0.5 SE 13 17 7 9 1004.3 - 0.8
10/04:39am 21.9 24.1 21.1 95 0.5 SE 11 17 6 9 1004.2 - 0.8
10/04:30am 21.6 24.1 21.0 96 0.4 ESE 9 13 5 7 1004.2 - 0.8
10/04:22am 21.6 23.9 20.7 95 0.6 SE 9 15 5 8 1004.2 - 0.8
10/04:14am 21.8 24.7 20.6 93 0.8 S 6 15 3 8 1004.2 - 0.6
10/04:00am 21.5 23.9 20.1 92 0.9 SSW 7 7 4 4 1004.1 - 0.0
10/03:00am 21.1 25.0 20.3 95 0.5 CALM 0 0 0 0 1004.0 1003.6 0.0
10/02:30am 21.1 25.0 20.3 95 0.5 CALM 0 4 0 2 1004.1 - 0.0
10/02:00am 20.9 23.5 20.0 95 0.6 SSW 6 7 3 4 1004.2 - 0.0
10/01:35am 20.9 24.3 20.1 95 0.5 SW 2 7 1 4 1004.2 - 0.0
10/01:30am 21.2 25.1 20.4 95 0.5 CALM 0 0 0 0 1004.2 - 0.0
10/01:17am 21.4 25.4 20.6 95 0.5 CALM 0 0 0 0 1004.1 - 0.0
10/01:00am 21.4 25.4 20.6 95 0.5 CALM 0 0 0 0 1004.4 - 0.0
10/12:30am 21.5 25.5 20.6 95 0.6 CALM 0 0 0 0 1004.6 - 0.0
10/12:00am 21.3 25.2 20.4 95 0.6 CALM 0 0 0 0 1004.9 1004.5 0.0
 
Date/Time
EDT
Temp
°C
App
Temp
°C
Dew
Point
Rel
Hum
%
Delta-T
°C
Wind Press
QNH
hPa
Press
MSL
hPa
Rain
since 9 am
mm
Dir
 
Spd
km/h
Gust
km/h
Spd
kts
Gust
kts
09/11:30pm 21.2 25.0 20.1 93 0.7 CALM 0 0 0 0 1005.2 - 0.0
09/11:00pm 21.2 25.0 20.1 93 0.7 CALM 0 0 0 0 1005.3 - 0.0
09/10:30pm 21.6 25.4 20.2 92 0.9 CALM 0 0 0 0 1005.4 - 0.0
09/10:00pm 21.8 25.7 20.4 92 0.9 CALM 0 0 0 0 1005.5 - 0.0
09/09:30pm 22.2 25.0 20.5 90 1.1 SW 6 9 3 5 1005.6 - 0.0
09/09:00pm 22.3 24.8 20.3 88 1.3 SW 7 9 4 5 1005.6 1005.1 0.0
09/08:30pm 22.7 25.0 20.6 88 1.4 SW 9 9 5 5 1005.6 - 0.0
09/08:19pm 22.7 25.0 20.6 88 1.4 SW 9 13 5 7 1005.3 - 0.0
09/08:06pm 22.6 25.3 20.6 88 1.3 SW 7 11 4 6 1005.0 - 0.0
09/08:00pm 22.7 25.4 20.6 88 1.4 SW 7 11 4 6 1004.9 - 0.0
09/07:30pm 22.8 25.3 20.2 85 1.7 WSW 7 11 4 6 1004.6 - 0.0
09/07:00pm 22.9 24.9 20.0 84 1.9 WSW 9 11 5 6 1004.0 - 0.0
09/06:30pm 23.6 25.1 19.7 79 2.5 WSW 11 15 6 8 1003.5 - 0.0
09/06:00pm 24.2 25.3 19.7 76 2.9 WSW 13 17 7 9 1003.1 1002.7 0.0
09/05:30pm 24.5 25.4 20.1 76 2.9 WSW 15 19 8 10 1002.9 - 0.0
09/05:00pm 24.3 24.7 19.8 76 2.9 WSW 17 24 9 13 1002.8 - 0.0
09/04:30pm 25.0 25.1 19.9 73 3.3 WSW 19 24 10 13 1002.7 - 0.0
09/04:00pm 24.7 24.7 20.1 75 3.0 WSW 20 24 11 13 1002.7 - 0.0
09/03:30pm 25.3 25.5 20.1 73 3.4 WSW 19 26 10 14 1002.7 - 0.0
09/03:00pm 25.6 25.9 20.4 73 3.4 WSW 19 26 10 14 1002.6 1002.1 0.0
09/02:30pm 25.6 25.4 20.6 74 3.3 WSW 22 28 12 15 1002.8 - 0.0
09/02:00pm 25.5 25.0 20.0 71 3.6 WSW 22 28 12 15 1003.1 - 0.0
09/01:30pm 25.8 25.5 21.1 75 3.1 WSW 24 30 13 16 1003.3 - 0.0
09/01:00pm 25.9 26.8 21.6 77 2.9 SW 19 26 10 14 1003.4 - 0.0
09/12:30pm 25.5 25.0 20.8 75 3.1 WSW 24 30 13 16 1003.4 - 0.0
09/12:00pm 25.9 25.6 21.1 75 3.2 WSW 24 32 13 17 1003.3 1002.9 0.0
09/11:30am 25.3 24.9 20.9 76 2.9 W 24 32 13 17 1003.2 - 0.0
09/11:00am 25.4 25.8 21.0 76 2.9 W 20 30 11 16 1003.3 - 0.0
09/10:30am 25.3 24.9 20.9 76 2.9 WSW 24 30 13 16 1003.4 - 0.0
09/10:00am 25.3 25.4 21.1 77 2.8 WSW 22 30 12 16 1003.5 - 0.0
09/09:30am 24.0 23.8 21.3 85 1.8 WSW 24 32 13 17 1003.6 - 0.0
09/09:12am 24.2 24.9 21.5 85 1.8 WSW 20 30 11 16 1003.5 - 0.0
09/09:00am 23.6 24.3 21.5 88 1.4 WSW 20 30 11 16 1003.6 1003.2 0.2
09/08:30am 24.3 24.5 21.3 83 2.0 WSW 22 30 12 16 1003.6 - 0.0
09/08:22am 24.1 23.8 21.1 83 2.0 WSW 24 33 13 18 1003.6 - 0.0
09/08:00am 23.9 24.4 20.9 83 2.0 W 19 24 10 13 1003.7 - 0.0
09/07:30am 23.9 23.5 20.9 83 2.0 W 24 33 13 18 1003.5 - 0.0
09/07:00am 23.5 23.0 20.8 85 1.8 W 24 33 13 18 1003.5 - 0.0
09/06:54am 23.2 22.5 20.3 84 1.9 W 24 33 13 18 1003.5 - 0.0
09/06:39am 23.1 21.9 20.8 87 1.5 W 28 33 15 18 1003.3 - 0.0
09/06:30am 23.2 21.9 20.6 85 1.7 W 28 37 15 20 1003.3 - 0.0
09/06:18am 23.0 22.1 20.6 86 1.6 W 26 37 14 20 1003.3 - 0.0
09/06:00am 22.9 22.3 20.6 87 1.5 W 24 33 13 18 1003.2 1002.8 0.0
09/05:30am 22.9 21.6 20.6 87 1.5 W 28 37 15 20 1003.0 - 0.0
09/05:17am 22.8 21.3 20.2 85 1.7 W 28 39 15 21 1002.9 - 0.0
09/05:00am 22.6 21.6 20.5 88 1.4 W 26 35 14 19 1002.8 - 0.0
09/04:32am 22.1 20.8 19.8 87 1.5 W 26 39 14 21 1002.6 - 0.0
09/04:30am 22.0 20.4 20.1 89 1.2 W 28 39 15 21 1002.6 - 0.0
09/04:00am 22.4 21.5 20.6 89 1.2 W 26 39 14 21 1002.5 - 0.0
09/03:36am 23.1 22.6 20.7 86 1.6 W 24 30 13 16 1002.4 - 0.0
09/03:33am 23.0 22.5 20.7 87 1.5 W 24 33 13 18 1002.4 - 0.0
09/03:30am 23.0 22.5 20.7 87 1.5 W 24 33 13 18 1002.5 - 0.0
09/03:14am 23.0 23.3 20.7 87 1.5 W 20 30 11 16 1002.5 - 0.0
09/03:00am 22.9 23.1 20.6 87 1.5 W 20 30 11 16 1002.5 1002.0 0.0
09/02:30am 22.9 23.1 20.6 87 1.5 WNW 20 30 11 16 1002.6 - 0.0
09/02:22am 22.8 23.8 21.0 89 1.2 WNW 17 26 9 14 1002.7 - 0.0
09/02:00am 22.7 23.5 20.7 88 1.3 W 17 26 9 14 1002.9 - 0.0
09/01:30am 22.8 23.1 20.7 88 1.4 WNW 20 28 11 15 1003.0 - 0.0
09/01:05am 22.7 23.5 20.7 88 1.3 WNW 17 26 9 14 1003.2 - 0.0
09/01:00am 22.7 23.1 20.6 88 1.4 WNW 19 28 10 15 1003.3 - 0.0
09/12:48am 22.9 23.8 20.8 88 1.4 W 17 24 9 13 1003.5 - 0.0
09/12:45am 22.9 23.8 20.8 88 1.4 W 17 24 9 13 1003.5 - 0.0
09/12:33am 23.0 23.9 20.9 88 1.4 W 17 26 9 14 1003.7 - 0.0
09/12:30am 23.0 23.9 20.9 88 1.4 W 17 26 9 14 1003.7 - 0.0
09/12:12am 22.9 23.8 20.9 88 1.3 WNW 17 26 9 14 1004.0 - 0.0
09/12:00am 23.0 23.6 21.0 88 1.3 W 19 26 10 14 1004.1 1003.7 0.0
 
Date/Time
EDT
Temp
°C
App
Temp
°C
Dew
Point
Rel
Hum
%
Delta-T
°C
Wind Press
QNH
hPa
Press
MSL
hPa
Rain
since 9 am
mm
Dir
 
Spd
km/h
Gust
km/h
Spd
kts
Gust
kts
08/11:58pm 23.0 23.6 21.0 88 1.3 W 19 26 10 14 1004.2 - 0.0
08/11:30pm 22.9 23.8 20.9 88 1.3 W 17 24 9 13 1004.4 - 0.0
08/11:00pm 23.1 23.5 20.7 86 1.6 W 19 28 10 15 1004.7 - 0.0
08/10:30pm 22.9 23.2 20.4 86 1.6 W 19 26 10 14 1004.9 - 0.0
08/10:00pm 23.1 24.1 21.1 88 1.3 W 17 20 9 11 1005.2 - 0.0
08/09:30pm 23.0 23.9 20.9 88 1.4 W 17 22 9 12 1005.2 - 0.0
08/09:09pm 23.2 24.1 20.8 86 1.6 W 17 22 9 12 1005.3 - 0.0
08/09:00pm 23.2 23.6 20.6 85 1.7 W 19 26 10 14 1005.3 1004.8 0.0
08/08:47pm 23.3 24.2 20.9 86 1.6 W 17 24 9 13 1005.2 - 0.0
08/08:30pm 23.3 24.4 21.2 88 1.4 W 17 24 9 13 1005.0 - 0.0
08/08:00pm 23.3 24.2 20.9 86 1.6 W 17 22 9 12 1005.2 - 0.0
08/07:30pm 23.3 24.1 20.7 85 1.7 W 17 22 9 12 1004.7 - 0.0
08/07:00pm 23.2 24.0 20.6 85 1.7 W 17 24 9 13 1004.3 - 0.0
08/06:30pm 23.5 23.9 20.9 85 1.7 W 20 28 11 15 1004.3 - 0.0
08/06:00pm 24.0 24.0 21.0 83 2.0 W 22 30 12 16 1004.2 1003.8 0.0
08/05:30pm 24.4 24.7 20.8 80 2.4 W 20 30 11 16 1004.2 - 0.0
08/05:00pm 25.1 25.3 20.5 75 3.0 W 20 28 11 15 1004.2 - 0.0
08/04:30pm 24.9 24.6 21.1 79 2.5 WSW 24 33 13 18 1004.3 - 0.0
08/04:00pm 25.0 24.6 20.9 78 2.7 W 24 32 13 17 1004.2 - 0.0
08/03:30pm 25.6 25.9 20.8 75 3.2 WSW 20 28 11 15 1004.3 - 0.0
08/03:00pm 25.6 25.4 21.2 76 2.9 WSW 24 32 13 17 1004.5 1004.1 0.0
08/02:30pm 26.0 25.2 21.7 77 2.9 WSW 28 35 15 19 1004.9 - 0.0
08/01:30pm 25.4 25.4 21.7 80 2.5 WSW 24 33 13 18 1005.7 - 0.0
08/01:00pm 25.2 25.3 21.8 81 2.3 WSW 24 33 13 18 1005.8 - 0.0
08/12:30pm 23.9 24.2 22.3 91 1.1 SW 24 37 13 20 1005.9 - 0.0
08/12:00pm 24.2 25.1 22.0 87 1.5 WSW 20 30 11 16 1006.1 1005.6 0.0
08/11:30am 24.1 24.6 22.0 88 1.4 W 22 32 12 17 1006.3 - 0.0

Other Formats:

Comma delimited format used in spreadsheet applications
http://www.bom.gov.au/fwo/IDN60801/IDN60801.94996.axf

JavaScript Object Notation format (JSON) in row-major order
http://www.bom.gov.au/fwo/IDN60801/IDN60801.94996.json